Quick Links (Output Below):   Max & Min Temps   /   Climate Reports   /   Zone Forecasts
River Forecasts   /   Forestry Forecasts   /   Aviation Forecasts   /   Radars   /   Features

Terminal Aerodrome Forecast (Fayetteville)

Pick a Site:
Arkadelphia | El Dorado | Fayetteville | Fort Smith | Harrison | Highfill | Hot Springs | Jonesboro
Little Rock | Monticello | Mountain Home | Pine Bluff | Texarkana
 Forecast 

KFYV 040520Z 0406/0506 VRB04KT P6SM SCT090 BKN200
     FM050000 VRB06KT P6SM BKN250 PROB30 0500/0506 P6SM TSRA
      BKN050CB=


 Latest METARs (Observations) 
How to Decode METARs
05Z KFYV 040453Z AUTO 18004KT 10SM CLR 21/21 A2999 RMK AO2 SLP138
         T02110206
         
04Z KFYV 040353Z AUTO 00000KT 10SM CLR 22/21 A2999 RMK AO2 SLP138
         T02220211
         
03Z KFYV 040253Z AUTO 17003KT 10SM CLR 23/22 A2998 RMK AO2 SLP138
         T02280217 53007
         
02Z KFYV 040153Z 00000KT 10SM CLR 24/24 A2997 RMK AO2 SLP133
         T02440239
         
01Z KFYV 040053Z 00000KT 10SM CLR 28/24 A2997 RMK AO2 SLP133
         T02780244
         
00Z KFYV 032353Z 24003KT 10SM CLR 29/22 A2996 RMK AO2 SLP132 T02940217
         10317 20289 56006
         
***** Today's Observations (Above) *****


23Z KFYV 032253Z 24004KT 10SM CLR 29/21 A2996 RMK AO2 SLP132
         T02940211
         
22Z KFYV 032153Z 23005KT 10SM CLR 30/21 A2997 RMK AO2 SLP135
         T03000206
         
21Z KFYV 032053Z 29004KT 10SM CLR 32/20 A2998 RMK AO2 SLP137 T03170200
         58004
         
20Z KFYV 031953Z AUTO 20005KT 10SM CLR 31/19 A2999 RMK AO2 SLP141
         T03110194
         
***** Yesterday's Observations (Above) *****


Back to Main Page
http://www.srh.noaa.gov/lzk/qfcst.php

USA.gov is the U.S. government's official web portal to all federal, state and local government web resources and services.